^^
Saratoga-Weather Station Historical Data
Daily Summary for May 17, 2022 Units:  Metric    English   Both
Daily Weekly Monthly Yearly Custom
  High: Low: Average:
Temperature: 27.6 °C 12.3 °C 19.6 °C
Dew Point: 16.8 °C 11.5 °C 13.8 °C
Humidity: 96% 42% 72%
Wind Speed: 13km/h 0km/h 1.2km/h
Wind Gust: 19.3km/h - -
Wind- - ESE
Pressure: 1021.0 hPa 1017.3 hPa -
Precipitation: 0.0 mm    
Historical Graphs
 
 
Tabular Data for May 17, 2022
Time Temperature Dew Point Pressure Wind Wind Speed Wind Gust Humidity Rainfall Rate (Hourly) solar
00:02 15.2 °C 13.6 °C 1019.6 hPa Calm     90% 0.0 mm 0 W/m2
00:07 15.1 °C 13.5 °C 1019.6 hPa Calm     90% 0.0 mm 0 W/m2
00:12 15 °C 13.4 °C 1019.6 hPa Calm     90% 0.0 mm 0 W/m2
00:17 14.9 °C 13.3 °C 1019.6 hPa Calm     90% 0.0 mm 0 W/m2
00:22 14.9 °C 13.3 °C 1019.6 hPa Calm     90% 0.0 mm 0 W/m2
00:27 14.8 °C 13.3 °C 1019.6 hPa Calm     91% 0.0 mm 0 W/m2
00:32 14.8 °C 13.3 °C 1019.6 hPa West 1.4 km/h 1.6 km/h 91% 0.0 mm 0 W/m2
00:37 14.8 °C 13.3 °C 1019.6 hPa Calm     91% 0.0 mm 0 W/m2
00:42 14.7 °C 13.2 °C 1019.6 hPa Calm     91% 0.0 mm 0 W/m2
00:47 14.7 °C 13.2 °C 1019.6 hPa Calm     91% 0.0 mm 0 W/m2
00:52 14.7 °C 13.2 °C 1019.6 hPa Calm     91% 0.0 mm 0 W/m2
00:57 14.6 °C 13.1 °C 1019.6 hPa West 1.4 km/h 3.2 km/h 91% 0.0 mm 0 W/m2
01:02 14.5 °C 13.2 °C 1019.6 hPa Calm   1.6 km/h 92% 0.0 mm 0 W/m2
01:07 14.4 °C 12.9 °C 1019.6 hPa Calm   1.6 km/h 91% 0.0 mm 0 W/m2
01:12 14.3 °C 12.9 °C 1019.6 hPa Calm     91% 0.0 mm 0 W/m2
01:17 14.2 °C 12.9 °C 1020.0 hPa Calm     92% 0.0 mm 0 W/m2
01:22 14.1 °C 12.7 °C 1020.0 hPa Calm     91% 0.0 mm 0 W/m2
01:27 14.1 °C 12.8 °C 1019.6 hPa Calm     92% 0.0 mm 0 W/m2
01:32 14 °C 12.7 °C 1019.6 hPa Calm     92% 0.0 mm 0 W/m2
01:37 13.9 °C 12.6 °C 1020.0 hPa Calm     92% 0.0 mm 0 W/m2
01:42 13.9 °C 12.6 °C 1020.0 hPa Calm     92% 0.0 mm 0 W/m2
01:47 13.8 °C 12.5 °C 1020.0 hPa Calm     92% 0.0 mm 0 W/m2
01:52 13.7 °C 12.4 °C 1020.0 hPa Calm     92% 0.0 mm 0 W/m2
01:57 13.7 °C 12.4 °C 1020.0 hPa Calm     92% 0.0 mm 0 W/m2
02:02 13.7 °C 12.6 °C 1020.0 hPa Calm     93% 0.0 mm 0 W/m2
02:07 13.8 °C 12.9 °C 1019.6 hPa Calm     94% 0.0 mm 0 W/m2
02:12 13.8 °C 12.9 °C 1020.0 hPa Calm     94% 0.0 mm 0 W/m2
02:17 13.8 °C 12.7 °C 1020.0 hPa Calm     93% 0.0 mm 0 W/m2
02:22 13.7 °C 12.6 °C 1020.0 hPa Calm     93% 0.0 mm 0 W/m2
02:27 13.7 °C 12.6 °C 1020.0 hPa Calm     93% 0.0 mm 0 W/m2
02:32 13.6 °C 12.5 °C 1019.6 hPa Calm     93% 0.0 mm 0 W/m2
02:37 13.6 °C 12.5 °C 1019.6 hPa Calm     93% 0.0 mm 0 W/m2
02:42 13.5 °C 12.4 °C 1019.6 hPa Calm     93% 0.0 mm 0 W/m2
02:47 13.4 °C 12.5 °C 1019.6 hPa Calm     94% 0.0 mm 0 W/m2
02:57 13.4 °C 12.5 °C 1019.6 hPa Calm     94% 0.0 mm 0 W/m2
03:02 13.4 °C 12.5 °C 1019.6 hPa Calm     94% 0.0 mm 0 W/m2
03:07 13.3 °C 12.4 °C 1019.6 hPa Calm     94% 0.0 mm 0 W/m2
03:12 13.2 °C 12.1 °C 1019.6 hPa Calm     93% 0.0 mm 0 W/m2
03:17 13.2 °C 12.3 °C 1019.6 hPa West 3.2 km/h 3.2 km/h 94% 0.0 mm 0 W/m2
03:22 13.2 °C 12.3 °C 1019.6 hPa Calm     94% 0.0 mm 0 W/m2
03:27 13.2 °C 12.3 °C 1019.6 hPa Calm     94% 0.0 mm 0 W/m2
03:32 13.1 °C 12.2 °C 1019.6 hPa Calm     94% 0.0 mm 0 W/m2
03:37 13.1 °C 12.2 °C 1019.6 hPa Calm   1.6 km/h 94% 0.0 mm 0 W/m2
03:42 13 °C 12.1 °C 1019.6 hPa Calm     94% 0.0 mm 0 W/m2
03:47 12.9 °C 12 °C 1019.6 hPa Calm     94% 0.0 mm 0 W/m2
03:52 12.9 °C 12 °C 1019.6 hPa Calm     94% 0.0 mm 0 W/m2
03:57 12.9 °C 12 °C 1019.6 hPa Calm     94% 0.0 mm 0 W/m2
04:02 12.9 °C 12 °C 1019.6 hPa Calm     94% 0.0 mm 0 W/m2
04:07 12.8 °C 11.9 °C 1019.6 hPa Calm     94% 0.0 mm 0 W/m2
04:12 12.8 °C 11.9 °C 1019.6 hPa Calm     94% 0.0 mm 0 W/m2
04:18 12.7 °C 11.8 °C 1019.6 hPa Calm     94% 0.0 mm 0 W/m2
04:23 12.8 °C 12 °C 1019.3 hPa Calm     95% 0.0 mm 0 W/m2
04:28 12.8 °C 12 °C 1019.6 hPa Calm     95% 0.0 mm 0 W/m2
04:33 12.8 °C 12 °C 1019.3 hPa Calm     95% 0.0 mm 0 W/m2
04:38 12.8 °C 12 °C 1019.6 hPa Calm     95% 0.0 mm 0 W/m2
04:43 12.8 °C 12 °C 1019.6 hPa Calm     95% 0.0 mm 0 W/m2
04:48 12.7 °C 11.9 °C 1019.6 hPa Calm     95% 0.0 mm 0 W/m2
04:53 12.7 °C 11.9 °C 1019.6 hPa Calm     95% 0.0 mm 0 W/m2
04:58 12.6 °C 11.8 °C 1019.6 hPa Calm     95% 0.0 mm 0 W/m2
05:03 12.6 °C 11.8 °C 1019.6 hPa Calm     95% 0.0 mm 0 W/m2
05:08 12.6 °C 11.8 °C 1019.6 hPa Calm     95% 0.0 mm 0 W/m2
05:13 12.6 °C 11.8 °C 1019.6 hPa Calm     95% 0.0 mm 0 W/m2
05:18 12.5 °C 11.7 °C 1019.6 hPa Calm     95% 0.0 mm 0 W/m2
05:23 12.4 °C 11.6 °C 1019.6 hPa Calm     95% 0.0 mm 0 W/m2
05:28 12.4 °C 11.6 °C 1019.6 hPa Calm     95% 0.0 mm 0 W/m2
05:33 12.4 °C 11.6 °C 1020.0 hPa Calm     95% 0.0 mm 0 W/m2
05:38 12.3 °C 11.5 °C 1020.0 hPa Calm     95% 0.0 mm 0 W/m2
05:43 12.4 °C 11.6 °C 1020.0 hPa Calm     95% 0.0 mm 0 W/m2
05:48 12.4 °C 11.6 °C 1020.0 hPa Calm     95% 0.0 mm 0 W/m2
05:53 12.4 °C 11.6 °C 1020.0 hPa Calm     95% 0.0 mm 5 W/m2
05:58 12.4 °C 11.6 °C 1020.0 hPa Calm     95% 0.0 mm 7 W/m2
06:03 12.3 °C 11.5 °C 1020.0 hPa Calm     95% 0.0 mm 11 W/m2
06:08 12.3 °C 11.5 °C 1020.0 hPa Calm     95% 0.0 mm 14 W/m2
06:13 12.3 °C 11.5 °C 1020.0 hPa Calm     95% 0.0 mm 18 W/m2
06:18 12.3 °C 11.5 °C 1020.0 hPa Calm     95% 0.0 mm 19 W/m2
06:23 12.4 °C 11.8 °C 1020.0 hPa Calm     96% 0.0 mm 21 W/m2
06:28 12.5 °C 11.9 °C 1020.0 hPa Calm     96% 0.0 mm 23 W/m2
06:33 12.7 °C 12.1 °C 1020.0 hPa North 1.4 km/h 3.2 km/h 96% 0.0 mm 25 W/m2
06:38 12.7 °C 12.1 °C 1020.0 hPa NE 1.4 km/h 3.2 km/h 96% 0.0 mm 28 W/m2
06:43 12.6 °C 12 °C 1020.3 hPa Calm     96% 0.0 mm 30 W/m2
06:48 12.6 °C 12 °C 1020.3 hPa Calm     96% 0.0 mm 33 W/m2
06:53 12.6 °C 12 °C 1020.3 hPa Calm     96% 0.0 mm 35 W/m2
06:58 12.6 °C 12 °C 1020.3 hPa Calm     96% 0.0 mm 35 W/m2
07:03 12.7 °C 12.1 °C 1020.3 hPa Calm     96% 0.0 mm 35 W/m2
07:08 12.7 °C 12.1 °C 1020.3 hPa Calm     96% 0.0 mm 39 W/m2
07:13 12.8 °C 12.2 °C 1020.3 hPa Calm     96% 0.0 mm 46 W/m2
07:18 12.8 °C 12.2 °C 1020.3 hPa Calm     96% 0.0 mm 56 W/m2
07:23 12.9 °C 12.3 °C 1020.3 hPa Calm     96% 0.0 mm 58 W/m2
07:28 12.9 °C 12.3 °C 1020.3 hPa Calm     96% 0.0 mm 54 W/m2
07:33 13 °C 12.4 °C 1020.3 hPa Calm     96% 0.0 mm 58 W/m2
07:38 13.1 °C 12.5 °C 1020.3 hPa Calm     96% 0.0 mm 63 W/m2
07:43 13.2 °C 12.6 °C 1020.7 hPa Calm     96% 0.0 mm 79 W/m2
07:48 13.2 °C 12.6 °C 1020.3 hPa Calm     96% 0.0 mm 97 W/m2
07:53 13.3 °C 12.7 °C 1020.7 hPa Calm     96% 0.0 mm 105 W/m2
07:58 13.4 °C 12.8 °C 1020.7 hPa Calm     96% 0.0 mm 113 W/m2
08:03 13.5 °C 12.9 °C 1020.7 hPa Calm     96% 0.0 mm 120 W/m2
08:08 13.6 °C 12.8 °C 1020.7 hPa Calm     95% 0.0 mm 120 W/m2
08:13 13.7 °C 13.1 °C 1020.7 hPa Calm     96% 0.0 mm 118 W/m2
08:18 13.8 °C 13 °C 1020.7 hPa Calm     95% 0.0 mm 125 W/m2
08:23 13.8 °C 13 °C 1020.7 hPa Calm     95% 0.0 mm 135 W/m2
08:28 14 °C 13.2 °C 1020.7 hPa NE 1.4 km/h 3.2 km/h 95% 0.0 mm 148 W/m2
08:33 14.1 °C 13.1 °C 1020.7 hPa Calm   3.2 km/h 94% 0.0 mm 155 W/m2
08:38 14.3 °C 13.3 °C 1020.7 hPa Calm     94% 0.0 mm 165 W/m2
08:43 14.5 °C 13.5 °C 1020.7 hPa Calm   3.2 km/h 94% 0.0 mm 174 W/m2
08:48 14.7 °C 13.6 °C 1020.7 hPa NE 1.4 km/h 3.2 km/h 93% 0.0 mm 185 W/m2
08:53 15 °C 13.9 °C 1020.7 hPa Calm   3.2 km/h 93% 0.0 mm 199 W/m2
08:58 15.2 °C 13.9 °C 1020.7 hPa Calm   3.2 km/h 92% 0.0 mm 209 W/m2
09:03 15.4 °C 13.9 °C 1020.7 hPa Calm     91% 0.0 mm 213 W/m2
09:08 15.7 °C 14.2 °C 1020.7 hPa Calm   1.6 km/h 91% 0.0 mm 211 W/m2
09:13 15.9 °C 14.3 °C 1020.7 hPa North 1.4 km/h 1.6 km/h 90% 0.0 mm 211 W/m2
09:18 16.3 °C 14.7 °C 1020.7 hPa ESE 3.2 km/h 3.2 km/h 90% 0.0 mm 197 W/m2
09:23 16.6 °C 14.6 °C 1020.7 hPa East 3.2 km/h 4.8 km/h 88% 0.0 mm 190 W/m2
09:28 16.8 °C 14.6 °C 1020.7 hPa Calm   4.8 km/h 87% 0.0 mm 195 W/m2
09:33 17 °C 14.8 °C 1020.7 hPa Calm   1.6 km/h 87% 0.0 mm 202 W/m2
09:38 17.3 °C 15.1 °C 1020.7 hPa Calm   1.6 km/h 87% 0.0 mm 199 W/m2
09:43 17.8 °C 15.2 °C 1021.0 hPa East 4.7 km/h 6.4 km/h 85% 0.0 mm 192 W/m2
09:48 18.2 °C 15.3 °C 1021.0 hPa ENE 1.4 km/h 1.6 km/h 83% 0.0 mm 190 W/m2
09:53 18.4 °C 15.5 °C 1021.0 hPa ENE 4.7 km/h 8 km/h 83% 0.0 mm 186 W/m2
09:58 18.6 °C 15.5 °C 1020.7 hPa East 3.2 km/h 6.4 km/h 82% 0.0 mm 241 W/m2
10:03 18.7 °C 15.6 °C 1020.7 hPa East 1.4 km/h 8 km/h 82% 0.0 mm 415 W/m2
10:08 18.9 °C 15.6 °C 1020.7 hPa Calm   4.8 km/h 81% 0.0 mm 401 W/m2
10:13 19.2 °C 15.9 °C 1020.7 hPa ENE 4.7 km/h 4.8 km/h 81% 0.0 mm 424 W/m2
10:18 19.4 °C 15.7 °C 1020.7 hPa East 1.4 km/h 4.8 km/h 79% 0.0 mm 420 W/m2
10:23 19.6 °C 16.1 °C 1020.7 hPa ENE 3.2 km/h 6.4 km/h 80% 0.0 mm 503 W/m2
10:28 19.7 °C 16 °C 1020.7 hPa SSE 1.4 km/h 4.8 km/h 79% 0.0 mm 506 W/m2
10:33 19.8 °C 15.7 °C 1020.7 hPa ENE 4.7 km/h 8 km/h 77% 0.0 mm 584 W/m2
10:38 19.9 °C 15.7 °C 1020.7 hPa East 1.4 km/h 9.7 km/h 77% 0.0 mm 617 W/m2
10:43 20.2 °C 16 °C 1020.7 hPa NE 1.4 km/h 9.7 km/h 77% 0.0 mm 533 W/m2
10:48 20.3 °C 15.9 °C 1020.7 hPa ESE 1.4 km/h 4.8 km/h 76% 0.0 mm 598 W/m2
10:53 20.6 °C 16.2 °C 1020.7 hPa SE 1.4 km/h 9.7 km/h 76% 0.0 mm 585 W/m2
10:58 20.9 °C 16.3 °C 1020.7 hPa East 3.2 km/h 11.3 km/h 75% 0.0 mm 645 W/m2
11:03 21.1 °C 16.5 °C 1020.7 hPa East 3.2 km/h 4.8 km/h 75% 0.0 mm 661 W/m2
11:08 21.3 °C 16.5 °C 1020.7 hPa NE 4.7 km/h 8 km/h 74% 0.0 mm 686 W/m2
11:13 21.4 °C 16.4 °C 1020.7 hPa SE 1.4 km/h 8 km/h 73% 0.0 mm 698 W/m2
11:18 21.5 °C 16.2 °C 1020.7 hPa East 4.7 km/h 4.8 km/h 72% 0.0 mm 724 W/m2
11:23 21.6 °C 16.3 °C 1020.7 hPa East 3.2 km/h 6.4 km/h 72% 0.0 mm 737 W/m2
11:28 21.9 °C 16.6 °C 1020.7 hPa ENE 7.9 km/h 12.9 km/h 72% 0.0 mm 745 W/m2
11:33 22.1 °C 16.4 °C 1020.7 hPa NE 3.2 km/h 6.4 km/h 70% 0.0 mm 733 W/m2
11:38 22.1 °C 16.6 °C 1020.7 hPa ENE 3.2 km/h 3.2 km/h 71% 0.0 mm 758 W/m2
11:43 22.3 °C 16.6 °C 1020.7 hPa Calm   8 km/h 70% 0.0 mm 737 W/m2
11:48 22.5 °C 16.8 °C 1020.3 hPa ENE 4.7 km/h 4.8 km/h 70% 0.0 mm 745 W/m2
11:53 22.6 °C 16.4 °C 1020.3 hPa NE 1.4 km/h 11.3 km/h 68% 0.0 mm 779 W/m2
11:58 22.8 °C 16.6 °C 1020.3 hPa SE 6.4 km/h 8 km/h 68% 0.0 mm 766 W/m2
12:03 22.9 °C 16.4 °C 1020.3 hPa ENE 1.4 km/h 6.4 km/h 67% 0.0 mm 742 W/m2
12:08 23.2 °C 16.3 °C 1020.3 hPa ESE 1.4 km/h 8 km/h 65% 0.0 mm 751 W/m2
12:13 23.3 °C 16.3 °C 1020.3 hPa ENE 1.4 km/h 9.7 km/h 65% 0.0 mm 793 W/m2
12:18 23.5 °C 16.3 °C 1020.0 hPa ESE 3.2 km/h 11.3 km/h 64% 0.0 mm 791 W/m2
12:23 23.6 °C 15.6 °C 1020.0 hPa ESE 4.7 km/h 9.7 km/h 61% 0.0 mm 802 W/m2
12:28 23.7 °C 15.5 °C 1020.0 hPa ENE 1.4 km/h 11.3 km/h 60% 0.0 mm 809 W/m2
12:33 23.7 °C 15.5 °C 1019.6 hPa NW 4.7 km/h 6.4 km/h 60% 0.0 mm 824 W/m2
12:38 23.7 °C 15.5 °C 1019.6 hPa NE 4.7 km/h 11.3 km/h 60% 0.0 mm 819 W/m2
12:43 23.8 °C 15.6 °C 1019.6 hPa ESE 1.4 km/h 6.4 km/h 60% 0.0 mm 817 W/m2
12:48 23.9 °C 13.4 °C 1019.6 hPa East 4.7 km/h 4.8 km/h 52% 0.0 mm 814 W/m2
12:53 24.2 °C 14.9 °C 1019.6 hPa ENE 6.4 km/h 11.3 km/h 56% 0.0 mm 830 W/m2
12:58 24.4 °C 15.1 °C 1019.6 hPa NE 6.4 km/h 6.4 km/h 56% 0.0 mm 842 W/m2
13:03 24.4 °C 15.6 °C 1019.6 hPa ENE 1.4 km/h 4.8 km/h 58% 0.0 mm 842 W/m2
13:08 24.8 °C 15.1 °C 1019.6 hPa ESE 4.7 km/h 4.8 km/h 55% 0.0 mm 828 W/m2
13:13 24.8 °C 14.6 °C 1019.3 hPa ENE 4.7 km/h 8 km/h 53% 0.0 mm 860 W/m2
13:18 24.7 °C 14.2 °C 1019.3 hPa NNE 3.2 km/h 9.7 km/h 52% 0.0 mm 861 W/m2
13:23 24.8 °C 15.1 °C 1019.3 hPa Calm   3.2 km/h 55% 0.0 mm 853 W/m2
13:28 24.8 °C 15.1 °C 1019.3 hPa East 1.4 km/h 11.3 km/h 55% 0.0 mm 863 W/m2
13:33 24.8 °C 15.1 °C 1019.3 hPa East 1.4 km/h 8 km/h 55% 0.0 mm 860 W/m2
13:38 24.9 °C 14.1 °C 1019.3 hPa ESE 13 km/h 14.5 km/h 51% 0.0 mm 849 W/m2
13:43 25 °C 15.3 °C 1019.3 hPa Calm   6.4 km/h 55% 0.0 mm 851 W/m2
13:48 25.1 °C 14.8 °C 1019.0 hPa NNW 1.4 km/h 14.5 km/h 53% 0.0 mm 854 W/m2
13:53 25.2 °C 14.6 °C 1019.0 hPa West 3.2 km/h 6.4 km/h 52% 0.0 mm 870 W/m2
13:58 25.4 °C 14.2 °C 1019.0 hPa ENE 6.4 km/h 8 km/h 50% 0.0 mm 898 W/m2
14:03 25.4 °C 14.8 °C 1019.0 hPa East 4.7 km/h 6.4 km/h 52% 0.0 mm 867 W/m2
14:08 25.5 °C 14 °C 1019.0 hPa East 1.4 km/h 4.8 km/h 49% 0.0 mm 851 W/m2
14:13 25.6 °C 13.1 °C 1019.0 hPa WNW 1.4 km/h 4.8 km/h 46% 0.0 mm 865 W/m2
14:18 25.8 °C 14.3 °C 1019.0 hPa ESE 4.7 km/h 14.5 km/h 49% 0.0 mm 889 W/m2
14:23 26.1 °C 14.2 °C 1019.0 hPa East 3.2 km/h 11.3 km/h 48% 0.0 mm 889 W/m2
14:28 26.2 °C 13.7 °C 1019.0 hPa East 3.2 km/h 14.5 km/h 46% 0.0 mm 896 W/m2
14:33 26.1 °C 12.9 °C 1018.6 hPa SW 1.4 km/h 6.4 km/h 44% 0.0 mm 886 W/m2
14:38 26.1 °C 13.2 °C 1018.6 hPa NNW 6.4 km/h 6.4 km/h 45% 0.0 mm 884 W/m2
14:43 25.9 °C 13.4 °C 1018.6 hPa WSW 1.4 km/h 6.4 km/h 46% 0.0 mm 879 W/m2
14:48 26.1 °C 14.5 °C 1018.6 hPa East 1.4 km/h 6.4 km/h 49% 0.0 mm 874 W/m2
14:53 26.1 °C 14.2 °C 1018.3 hPa Calm   1.6 km/h 48% 0.0 mm 916 W/m2
14:58 26.3 °C 14.4 °C 1018.3 hPa SSE 4.7 km/h 6.4 km/h 48% 0.0 mm 933 W/m2
15:03 26.4 °C 14.2 °C 1018.3 hPa ESE 4.7 km/h 8 km/h 47% 0.0 mm 930 W/m2
15:08 26.6 °C 14.4 °C 1018.3 hPa ESE 6.4 km/h 6.4 km/h 47% 0.0 mm 459 W/m2
15:13 26.4 °C 14.2 °C 1018.3 hPa East 3.2 km/h 6.4 km/h 47% 0.0 mm 229 W/m2
15:18 26.2 °C 13.3 °C 1018.3 hPa SE 1.4 km/h 3.2 km/h 45% 0.0 mm 916 W/m2
15:23 26.1 °C 13.2 °C 1018.3 hPa East 6.4 km/h 6.4 km/h 45% 0.0 mm 299 W/m2
15:28 26 °C 13.5 °C 1018.3 hPa Calm   4.8 km/h 46% 0.0 mm 206 W/m2
15:34 26.1 °C 13.6 °C 1018.3 hPa WNW 1.4 km/h 3.2 km/h 46% 0.0 mm 868 W/m2
15:39 26.3 °C 13.4 °C 1018.3 hPa SW 3.2 km/h 4.8 km/h 45% 0.0 mm 835 W/m2
15:44 26.6 °C 14 °C 1018.3 hPa Calm   6.4 km/h 46% 0.0 mm 844 W/m2
15:49 26.9 °C 14.3 °C 1018.3 hPa ESE 3.2 km/h 6.4 km/h 46% 0.0 mm 872 W/m2
15:54 27.2 °C 14.2 °C 1018.0 hPa NNW 4.7 km/h 12.9 km/h 45% 0.0 mm 865 W/m2
15:59 27.2 °C 13.9 °C 1018.0 hPa ESE 3.2 km/h 19.3 km/h 44% 0.0 mm 842 W/m2
16:09 27.1 °C 13.8 °C 1018.0 hPa SE 1.4 km/h 19.3 km/h 44% 0.0 mm 149 W/m2
16:14 27 °C 13.4 °C 1018.0 hPa South 1.4 km/h 6.4 km/h 43% 0.0 mm 793 W/m2
16:19 27.2 °C 13.2 °C 1018.0 hPa ESE 1.4 km/h 4.8 km/h 42% 0.0 mm 789 W/m2
16:24 27.2 °C 13.9 °C 1018.0 hPa SE 3.2 km/h 4.8 km/h 44% 0.0 mm 763 W/m2
16:29 27.3 °C 13.6 °C 1018.0 hPa SE 3.2 km/h 9.7 km/h 43% 0.0 mm 174 W/m2
16:34 27.1 °C 13.8 °C 1018.0 hPa East 1.4 km/h 4.8 km/h 44% 0.0 mm 364 W/m2
16:39 27 °C 14.7 °C 1018.0 hPa ENE 3.2 km/h 3.2 km/h 47% 0.0 mm 726 W/m2
16:44 27.1 °C 13.8 °C 1018.0 hPa NE 4.7 km/h 9.7 km/h 44% 0.0 mm 715 W/m2
16:49 27.2 °C 13.5 °C 1017.6 hPa Calm   6.4 km/h 43% 0.0 mm 707 W/m2
16:54 27.2 °C 14.6 °C 1017.6 hPa Calm   3.2 km/h 46% 0.0 mm 673 W/m2
16:59 27.2 °C 13.5 °C 1017.6 hPa ESE 3.2 km/h 9.7 km/h 43% 0.0 mm 689 W/m2
17:04 27 °C 13.7 °C 1017.6 hPa East 1.4 km/h 1.6 km/h 44% 0.0 mm 125 W/m2
17:09 26.7 °C 13.8 °C 1017.6 hPa SE 4.7 km/h 9.7 km/h 45% 0.0 mm 190 W/m2
17:14 26.8 °C 14.2 °C 1017.6 hPa SSE 3.2 km/h 3.2 km/h 46% 0.0 mm 628 W/m2
17:19 26.9 °C 13.3 °C 1017.3 hPa ESE 1.4 km/h 6.4 km/h 43% 0.0 mm 230 W/m2
17:24 26.8 °C 13.9 °C 1017.3 hPa Calm   1.6 km/h 45% 0.0 mm 612 W/m2
17:29 27 °C 13 °C 1017.3 hPa South 3.2 km/h 3.2 km/h 42% 0.0 mm 605 W/m2
17:34 27.3 °C 13.6 °C 1017.3 hPa ENE 6.4 km/h 6.4 km/h 43% 0.0 mm 543 W/m2
17:39 27.1 °C 14.1 °C 1017.6 hPa East 3.2 km/h 4.8 km/h 45% 0.0 mm 301 W/m2
17:44 27 °C 14.4 °C 1017.6 hPa Calm   1.6 km/h 46% 0.0 mm 148 W/m2
17:49 26.9 °C 15 °C 1017.3 hPa ENE 1.4 km/h 3.2 km/h 48% 0.0 mm 137 W/m2
17:54 26.7 °C 14.5 °C 1017.3 hPa ENE 1.4 km/h 1.6 km/h 47% 0.0 mm 158 W/m2
17:59 26.5 °C 14.9 °C 1017.3 hPa Calm   1.6 km/h 49% 0.0 mm 160 W/m2
18:04 26.3 °C 15 °C 1017.3 hPa West 1.4 km/h 4.8 km/h 50% 0.0 mm 171 W/m2
18:09 26.3 °C 14.1 °C 1017.3 hPa WSW 1.4 km/h 3.2 km/h 47% 0.0 mm 371 W/m2
18:14 26.5 °C 14.3 °C 1017.3 hPa Calm   4.8 km/h 47% 0.0 mm 524 W/m2
18:19 26.9 °C 15 °C 1017.3 hPa Calm   3.2 km/h 48% 0.0 mm 499 W/m2
18:24 27.1 °C 13.8 °C 1017.3 hPa ESE 1.4 km/h 6.4 km/h 44% 0.0 mm 308 W/m2
18:29 27.1 °C 13.8 °C 1017.3 hPa ESE 1.4 km/h 4.8 km/h 44% 0.0 mm 327 W/m2
18:34 26.9 °C 14 °C 1017.3 hPa SE 1.4 km/h 6.4 km/h 45% 0.0 mm 125 W/m2
18:39 26.9 °C 14.3 °C 1017.3 hPa SE 1.4 km/h 1.6 km/h 46% 0.0 mm 216 W/m2
18:44 26.9 °C 15 °C 1017.3 hPa SE 1.4 km/h 1.6 km/h 48% 0.0 mm 137 W/m2
18:49 27.2 °C 14.2 °C 1017.3 hPa Calm   4.8 km/h 45% 0.0 mm 118 W/m2
18:54 27.3 °C 14 °C 1017.3 hPa ESE 4.7 km/h 4.8 km/h 44% 0.0 mm 118 W/m2
18:59 27.4 °C 14.4 °C 1017.3 hPa Calm   1.6 km/h 45% 0.0 mm 113 W/m2
19:04 27.5 °C 14.5 °C 1017.3 hPa Calm     45% 0.0 mm 98 W/m2
19:09 27.6 °C 14.9 °C 1017.3 hPa East 3.2 km/h 4.8 km/h 46% 0.0 mm 105 W/m2
19:14 27.3 °C 14.3 °C 1017.3 hPa East 1.4 km/h 4.8 km/h 45% 0.0 mm 95 W/m2
19:19 27.3 °C 14.3 °C 1017.3 hPa Calm   3.2 km/h 45% 0.0 mm 88 W/m2
19:24 27.3 °C 14.7 °C 1017.3 hPa East 1.4 km/h 3.2 km/h 46% 0.0 mm 86 W/m2
19:29 27.3 °C 14.3 °C 1017.3 hPa Calm   1.6 km/h 45% 0.0 mm 72 W/m2
19:34 27.3 °C 14.3 °C 1017.3 hPa Calm   3.2 km/h 45% 0.0 mm 72 W/m2
19:39 27.3 °C 15.6 °C 1017.3 hPa Calm     49% 0.0 mm 62 W/m2
19:44 27.2 °C 15.9 °C 1017.3 hPa SE 1.4 km/h 1.6 km/h 50% 0.0 mm 54 W/m2
19:49 27.1 °C 16.4 °C 1017.3 hPa Calm   1.6 km/h 52% 0.0 mm 49 W/m2
19:54 26.9 °C 16.2 °C 1017.3 hPa SE 1.4 km/h 1.6 km/h 52% 0.0 mm 46 W/m2
19:59 26.6 °C 15.9 °C 1017.3 hPa SE 1.4 km/h 1.6 km/h 52% 0.0 mm 46 W/m2
20:04 26.3 °C 16 °C 1017.3 hPa SE 3.2 km/h 3.2 km/h 53% 0.0 mm 44 W/m2
20:09 26.1 °C 15.8 °C 1017.3 hPa SE 1.4 km/h 3.2 km/h 53% 0.0 mm 37 W/m2
20:14 25.8 °C 15.8 °C 1017.6 hPa SE 1.4 km/h 3.2 km/h 54% 0.0 mm 35 W/m2
20:19 25.4 °C 15.7 °C 1017.6 hPa Calm   3.2 km/h 55% 0.0 mm 32 W/m2
20:24 25.1 °C 15.7 °C 1017.6 hPa Calm   3.2 km/h 56% 0.0 mm 28 W/m2
20:29 24.8 °C 15.4 °C 1017.6 hPa Calm   1.6 km/h 56% 0.0 mm 26 W/m2
20:34 24.4 °C 15.3 °C 1017.3 hPa SE 1.4 km/h 3.2 km/h 57% 0.0 mm 23 W/m2
20:39 24.2 °C 15.1 °C 1017.3 hPa SE 1.4 km/h 1.6 km/h 57% 0.0 mm 21 W/m2
20:44 23.9 °C 15.1 °C 1017.3 hPa SE 1.4 km/h 1.6 km/h 58% 0.0 mm 18 W/m2
20:49 23.7 °C 14.9 °C 1017.3 hPa SE 1.4 km/h 3.2 km/h 58% 0.0 mm 16 W/m2
20:54 23.4 °C 14.9 °C 1017.3 hPa Calm   1.6 km/h 59% 0.0 mm 12 W/m2
20:59 23.2 °C 15 °C 1017.3 hPa SE 1.4 km/h 3.2 km/h 60% 0.0 mm 9 W/m2
21:04 22.8 °C 14.6 °C 1017.3 hPa Calm   1.6 km/h 60% 0.0 mm 7 W/m2
21:09 22.4 °C 14.5 °C 1017.6 hPa SE 1.4 km/h 1.6 km/h 61% 0.0 mm 5 W/m2
21:14 22 °C 14.4 °C 1017.6 hPa SE 1.4 km/h 3.2 km/h 62% 0.0 mm 0 W/m2
21:20 21.7 °C 14.3 °C 1017.6 hPa SE 1.4 km/h 3.2 km/h 63% 0.0 mm 0 W/m2
21:25 21.4 °C 14.3 °C 1017.6 hPa SE 1.4 km/h 1.6 km/h 64% 0.0 mm 0 W/m2
21:30 21.2 °C 14.1 °C 1017.6 hPa Calm     64% 0.0 mm 0 W/m2
21:35 21 °C 14.2 °C 1017.6 hPa SE 1.4 km/h 1.6 km/h 65% 0.0 mm 0 W/m2
21:40 20.8 °C 14 °C 1017.6 hPa Calm     65% 0.0 mm 0 W/m2
21:45 20.6 °C 14 °C 1018.0 hPa Calm   1.6 km/h 66% 0.0 mm 0 W/m2
21:50 20.4 °C 14.1 °C 1018.0 hPa Calm     67% 0.0 mm 0 W/m2
21:55 20.2 °C 13.9 °C 1018.0 hPa Calm   3.2 km/h 67% 0.0 mm 0 W/m2
22:00 19.9 °C 13.8 °C 1017.6 hPa Calm   3.2 km/h 68% 0.0 mm 0 W/m2
22:05 19.8 °C 13.7 °C 1017.6 hPa Calm     68% 0.0 mm 0 W/m2
22:10 19.6 °C 13.8 °C 1018.0 hPa Calm   3.2 km/h 69% 0.0 mm 0 W/m2
22:15 19.4 °C 13.6 °C 1018.0 hPa Calm     69% 0.0 mm 0 W/m2
22:20 19.3 °C 13.7 °C 1018.0 hPa Calm     70% 0.0 mm 0 W/m2
22:25 19.2 °C 13.8 °C 1018.0 hPa Calm     71% 0.0 mm 0 W/m2
22:30 19 °C 13.6 °C 1018.0 hPa Calm     71% 0.0 mm 0 W/m2
22:35 18.9 °C 13.5 °C 1018.0 hPa Calm     71% 0.0 mm 0 W/m2
22:40 18.7 °C 13.5 °C 1018.0 hPa Calm     72% 0.0 mm 0 W/m2
22:45 18.6 °C 13.5 °C 1018.0 hPa Calm     72% 0.0 mm 0 W/m2
22:50 18.6 °C 13.5 °C 1018.0 hPa Calm   1.6 km/h 72% 0.0 mm 0 W/m2
22:55 18.5 °C 13.6 °C 1018.0 hPa Calm     73% 0.0 mm 0 W/m2
23:00 18.4 °C 13.5 °C 1018.0 hPa Calm     73% 0.0 mm 0 W/m2
23:05 18.3 °C 13.4 °C 1018.0 hPa Calm     73% 0.0 mm 0 W/m2
23:10 18.2 °C 13.3 °C 1018.0 hPa Calm     73% 0.0 mm 0 W/m2
23:15 18.1 °C 13.2 °C 1018.0 hPa Calm     73% 0.0 mm 0 W/m2
23:20 18 °C 13.3 °C 1018.3 hPa Calm     74% 0.0 mm 0 W/m2
23:25 17.9 °C 13.2 °C 1018.0 hPa Calm     74% 0.0 mm 0 W/m2
23:30 17.8 °C 13.1 °C 1018.3 hPa Calm     74% 0.0 mm 0 W/m2
23:35 17.7 °C 13.2 °C 1018.3 hPa Calm     75% 0.0 mm 0 W/m2
23:40 17.6 °C 13.3 °C 1018.0 hPa Calm   1.6 km/h 76% 0.0 mm 0 W/m2
23:45 17.6 °C 13.3 °C 1018.3 hPa Calm   1.6 km/h 76% 0.0 mm 0 W/m2
23:50 17.4 °C 13.1 °C 1018.0 hPa Calm     76% 0.0 mm 0 W/m2
23:55 17.3 °C 13 °C 1018.3 hPa Calm   1.6 km/h 76% 0.0 mm 0 W/m2
Juneau County Weather
Compliments of Weather Underground - 4 mb